createdAt,value
2018-08-23T00:00:38.335Z,85.86
2018-08-23T00:03:16.266Z,85.53
2018-08-23T00:05:53.589Z,85.24
2018-08-23T00:08:23.066Z,85.25
2018-08-23T00:10:52.693Z,85.09
2018-08-23T00:13:21.949Z,85.56
2018-08-23T00:15:51.107Z,85.95
2018-08-23T00:18:20.016Z,86.11
2018-08-23T00:20:49.013Z,86.53
2018-08-23T00:23:17.951Z,86.16
2018-08-23T00:25:46.836Z,85.50
2018-08-23T00:28:15.789Z,85.45
2018-08-23T00:33:20.257Z,85.25
2018-08-23T00:35:49.139Z,86.27
2018-08-23T00:38:19.121Z,85.62
2018-08-23T00:40:48.017Z,85.17
2018-08-23T00:43:17.037Z,85.97
2018-08-23T00:45:45.940Z,86.05
2018-08-23T00:48:14.860Z,86.35
2018-08-23T00:50:53.707Z,86.27
2018-08-23T00:53:22.681Z,86.64
2018-08-23T00:56:03.691Z,86.65
2018-08-23T00:58:33.042Z,86.93
2018-08-23T01:01:03.101Z,85.98
2018-08-23T01:03:32.113Z,86.47
2018-08-23T01:06:01.606Z,86.42
2018-08-23T01:08:34.680Z,86.80
2018-08-23T01:11:05.328Z,87.29
2018-08-23T01:13:34.429Z,86.29
2018-08-23T01:16:03.427Z,86.52
2018-08-23T01:18:32.342Z,86.90
2018-08-23T01:21:07.109Z,86.75
2018-08-23T01:23:36.530Z,86.64
2018-08-23T01:26:06.348Z,86.75
2018-08-23T01:28:35.213Z,86.93
2018-08-23T01:31:21.884Z,87.12
2018-08-23T01:33:56.668Z,86.47
2018-08-23T01:36:30.189Z,87.46
2018-08-23T01:38:59.339Z,88.16
2018-08-23T01:41:28.231Z,87.38
2018-08-23T01:43:58.171Z,87.44
2018-08-23T01:46:31.511Z,87.08
2018-08-23T01:49:00.399Z,87.43
2018-08-23T01:51:29.327Z,87.00
2018-08-23T01:53:58.194Z,87.66
2018-08-23T01:56:27.157Z,87.49
2018-08-23T01:58:56.036Z,88.02
2018-08-23T02:01:24.988Z,87.89
2018-08-23T02:03:53.857Z,87.86
2018-08-23T02:06:26.960Z,88.05
2018-08-23T02:08:55.845Z,87.68
2018-08-23T02:11:24.831Z,87.98
2018-08-23T02:13:53.703Z,88.67
2018-08-23T02:16:22.904Z,88.16
2018-08-23T02:18:51.947Z,89.13
2018-08-23T02:21:20.869Z,89.94
2018-08-23T02:23:52.463Z,90.11
2018-08-23T02:26:21.314Z,89.60
2018-08-23T02:28:50.832Z,89.25
2018-08-23T02:31:19.810Z,88.87
2018-08-23T02:33:48.701Z,88.70
2018-08-23T02:36:18.138Z,88.67
2018-08-23T02:38:55.335Z,89.03
2018-08-23T02:41:24.223Z,88.50
2018-08-23T02:43:53.168Z,89.14
2018-08-23T02:46:22.065Z,89.71
2018-08-23T02:48:51.257Z,89.44
2018-08-23T02:51:20.237Z,89.12
2018-08-23T02:53:49.594Z,90.04
2018-08-23T02:56:20.524Z,89.60
2018-08-23T02:59:12.025Z,89.27
2018-08-23T03:01:41.088Z,89.66
2018-08-23T03:04:15.557Z,89.59
2018-08-23T03:06:50.858Z,88.96
2018-08-23T03:09:21.342Z,89.56
2018-08-23T03:11:51.235Z,89.60
2018-08-23T03:14:21.302Z,89.49
2018-08-23T03:17:29.222Z,89.24
2018-08-23T03:20:13.583Z,89.16
2018-08-23T03:22:43.448Z,89.30
2018-08-23T03:25:13.543Z,89.70
2018-08-23T03:27:42.521Z,89.78
2018-08-23T03:30:13.438Z,89.55
2018-08-23T03:32:42.383Z,89.57
2018-08-23T03:35:11.266Z,90.04
2018-08-23T03:37:40.316Z,90.17
2018-08-23T03:40:10.618Z,89.62
2018-08-23T03:42:39.553Z,90.36
2018-08-23T03:45:14.577Z,90.27
2018-08-23T03:47:50.532Z,90.07
2018-08-23T03:50:19.441Z,90.17
2018-08-23T03:52:49.765Z,90.77
2018-08-23T03:55:21.953Z,90.65
2018-08-23T03:57:51.320Z,90.53
2018-08-23T04:00:26.342Z,90.23
2018-08-23T04:02:55.452Z,90.75
2018-08-23T04:05:24.328Z,90.65
2018-08-23T04:07:53.283Z,90.90
2018-08-23T04:10:22.167Z,89.98
2018-08-23T04:12:51.079Z,89.88
2018-08-23T04:15:31.082Z,90.71
2018-08-23T04:18:18.250Z,90.56
2018-08-23T04:20:56.526Z,90.59
2018-08-23T04:23:25.547Z,90.61
2018-08-23T04:25:54.597Z,90.19
2018-08-23T04:28:24.531Z,90.34
2018-08-23T04:30:53.530Z,90.77
2018-08-23T04:33:22.484Z,91.29
2018-08-23T04:35:51.385Z,90.33
2018-08-23T04:38:21.286Z,90.17
2018-08-23T04:40:56.427Z,90.94
2018-08-23T04:43:25.330Z,90.43
2018-08-23T04:45:54.268Z,90.79
2018-08-23T04:48:23.196Z,90.86
2018-08-23T04:50:53.178Z,90.21
2018-08-23T04:53:22.158Z,90.79
2018-08-23T04:55:51.098Z,91.07
2018-08-23T04:58:20.010Z,90.76
2018-08-23T05:00:49.936Z,87.95
2018-08-23T05:03:18.822Z,89.76
2018-08-23T05:05:47.793Z,89.41
2018-08-23T05:08:16.707Z,88.84
2018-08-23T05:10:45.609Z,89.96
2018-08-23T05:13:14.615Z,90.14
2018-08-23T05:15:44.293Z,90.30
2018-08-23T05:18:13.263Z,90.14
2018-08-23T05:20:42.217Z,90.95
2018-08-23T05:23:11.233Z,90.71
2018-08-23T05:25:40.055Z,90.96
2018-08-23T05:28:19.021Z,91.26
2018-08-23T05:30:48.599Z,91.11
2018-08-23T05:33:18.369Z,90.88
2018-08-23T05:35:47.386Z,90.46
2018-08-23T05:38:17.037Z,90.24
2018-08-23T05:40:51.055Z,90.41
2018-08-23T05:43:20.013Z,90.22
2018-08-23T05:45:50.928Z,90.32
2018-08-23T05:48:32.389Z,90.77
2018-08-23T05:51:10.319Z,90.57
2018-08-23T05:53:44.802Z,90.80
2018-08-23T05:56:14.005Z,89.83
2018-08-23T05:58:43.184Z,90.41
2018-08-23T06:01:12.342Z,90.38
2018-08-23T06:03:41.498Z,90.62
2018-08-23T06:06:10.456Z,90.85
2018-08-23T06:08:42.085Z,91.28
2018-08-23T06:11:11.865Z,91.00
2018-08-23T06:13:40.938Z,90.29
2018-08-23T06:16:09.811Z,90.67
2018-08-23T06:18:38.685Z,89.91
2018-08-23T06:21:07.603Z,90.18
2018-08-23T06:24:00.467Z,90.64
2018-08-23T06:26:37.123Z,90.53
2018-08-23T06:29:06.040Z,90.85
2018-08-23T06:31:34.984Z,90.12
2018-08-23T06:34:04.073Z,90.41
2018-08-23T06:36:37.241Z,90.71
2018-08-23T06:39:06.990Z,90.52
2018-08-23T06:41:35.882Z,90.38
2018-08-23T06:44:04.796Z,90.48
2018-08-23T06:46:33.698Z,89.85
2018-08-23T06:49:02.578Z,89.93
2018-08-23T06:51:31.499Z,89.66
2018-08-23T06:54:01.509Z,89.64
2018-08-23T06:56:31.449Z,89.61
2018-08-23T06:59:00.523Z,89.46
2018-08-23T07:01:35.565Z,88.97
2018-08-23T07:04:11.294Z,88.69
2018-08-23T07:06:40.196Z,89.43
2018-08-23T07:09:11.876Z,88.57
2018-08-23T07:11:40.839Z,88.46
2018-08-23T07:14:12.878Z,87.98
2018-08-23T07:16:42.990Z,87.89
2018-08-23T07:19:25.637Z,87.00
2018-08-23T07:21:55.284Z,87.62
2018-08-23T07:24:37.596Z,86.80
2018-08-23T07:27:09.196Z,86.75
2018-08-23T07:29:38.140Z,85.97
2018-08-23T07:32:08.156Z,85.36
2018-08-23T07:34:37.324Z,85.66
2018-08-23T07:37:11.615Z,84.94
2018-08-23T07:39:44.698Z,84.44
2018-08-23T07:42:13.594Z,84.41
2018-08-23T07:44:42.562Z,83.90
2018-08-23T07:47:11.637Z,84.07
2018-08-23T07:49:40.635Z,83.55
2018-08-23T07:52:09.629Z,83.50
2018-08-23T07:54:38.653Z,83.06
2018-08-23T07:57:07.799Z,83.12
2018-08-23T07:59:36.818Z,82.93
2018-08-23T08:02:07.503Z,83.03
2018-08-23T08:04:36.414Z,83.23
2018-08-23T08:07:08.546Z,82.82
2018-08-23T08:09:37.521Z,81.88
2018-08-23T08:12:10.626Z,82.14
2018-08-23T08:14:39.626Z,81.87
2018-08-23T08:17:13.700Z,81.88
2018-08-23T08:19:57.978Z,81.52
2018-08-23T08:22:26.963Z,81.26
2018-08-23T08:25:05.809Z,80.68
2018-08-23T08:27:34.709Z,80.24
2018-08-23T08:30:03.620Z,79.85
2018-08-23T08:32:32.505Z,79.36
2018-08-23T08:35:01.397Z,79.37
2018-08-23T08:37:30.573Z,79.13
2018-08-23T08:39:59.581Z,77.96
2018-08-23T08:42:32.345Z,77.82
2018-08-23T08:45:06.596Z,77.49
2018-08-23T08:47:35.481Z,77.44
2018-08-23T08:50:04.955Z,76.87
2018-08-23T08:52:33.875Z,76.58
2018-08-23T08:55:02.844Z,76.56
2018-08-23T08:57:33.171Z,76.63
2018-08-23T09:00:02.251Z,76.40
2018-08-23T09:02:32.948Z,76.37
2018-08-23T09:05:02.577Z,76.33
2018-08-23T09:07:32.666Z,76.00
2018-08-23T09:10:01.658Z,75.64
2018-08-23T09:12:31.313Z,74.40
2018-08-23T09:15:00.272Z,73.27
2018-08-23T09:17:39.926Z,73.61
2018-08-23T09:20:14.365Z,73.06
2018-08-23T09:22:49.947Z,72.56
2018-08-23T09:25:23.582Z,71.55
2018-08-23T09:27:52.721Z,72.32
2018-08-23T09:30:25.982Z,71.86
2018-08-23T09:32:55.104Z,72.28
2018-08-23T09:35:29.170Z,73.49
2018-08-23T09:38:00.336Z,71.71
2018-08-23T09:40:29.785Z,71.50
2018-08-23T09:43:02.257Z,71.57
2018-08-23T09:45:32.188Z,71.39
2018-08-23T09:48:01.051Z,71.35
2018-08-23T09:50:29.998Z,71.45
2018-08-23T09:52:58.962Z,70.73
2018-08-23T09:55:30.150Z,70.81
2018-08-23T09:57:59.392Z,69.17
2018-08-23T10:00:33.658Z,68.70
2018-08-23T10:03:07.903Z,67.79
2018-08-23T10:05:48.122Z,68.00
2018-08-23T10:08:22.537Z,67.55
2018-08-23T10:10:56.827Z,67.78
2018-08-23T10:13:31.014Z,68.52
2018-08-23T10:16:05.075Z,67.45
2018-08-23T10:18:39.159Z,66.68
2018-08-23T10:21:08.148Z,65.99
2018-08-23T10:23:37.108Z,65.84
2018-08-23T10:26:16.047Z,64.70
2018-08-23T10:28:50.033Z,64.36
2018-08-23T10:31:18.933Z,64.56
2018-08-23T10:33:47.824Z,63.93
2018-08-23T10:36:16.730Z,65.17
2018-08-23T10:38:45.691Z,65.47
2018-08-23T10:41:14.762Z,65.68
2018-08-23T10:43:45.565Z,67.19
2018-08-23T10:46:14.555Z,67.07
2018-08-23T10:48:43.467Z,67.78
2018-08-23T10:51:12.416Z,67.31
2018-08-23T10:53:41.301Z,67.04
2018-08-23T10:56:11.230Z,66.56
2018-08-23T10:58:40.116Z,65.92
2018-08-23T11:01:09.088Z,65.48
2018-08-23T11:03:38.005Z,65.20
2018-08-23T11:06:06.889Z,65.14
2018-08-23T11:08:37.343Z,64.92
2018-08-23T11:11:11.636Z,64.92
2018-08-23T11:13:47.221Z,65.15
2018-08-23T11:16:21.380Z,65.69
2018-08-23T11:18:55.849Z,65.79
2018-08-23T11:21:24.766Z,66.00
2018-08-23T11:23:53.749Z,65.86
2018-08-23T11:26:24.010Z,65.48
2018-08-23T11:28:52.926Z,64.78
2018-08-23T11:31:27.193Z,64.34
2018-08-23T11:33:56.061Z,64.54
2018-08-23T11:36:24.967Z,64.34
2018-08-23T11:38:53.896Z,64.29
2018-08-23T11:41:22.790Z,64.51
2018-08-23T11:43:51.647Z,63.77
2018-08-23T11:46:21.723Z,64.35
2018-08-23T11:48:50.739Z,64.16
2018-08-23T11:51:20.017Z,63.46
2018-08-23T11:53:48.965Z,63.37
2018-08-23T11:56:17.855Z,64.00
2018-08-23T11:58:46.817Z,64.14
2018-08-23T12:01:16.740Z,63.49
2018-08-23T12:03:46.118Z,63.91
2018-08-23T12:06:16.184Z,63.52
2018-08-23T12:08:45.252Z,62.96
2018-08-23T12:11:14.235Z,63.19
2018-08-23T12:13:45.588Z,62.91
2018-08-23T12:16:14.541Z,63.24
2018-08-23T12:18:43.521Z,62.78
2018-08-23T12:21:12.400Z,62.30
2018-08-23T12:23:41.321Z,61.36
2018-08-23T12:26:10.301Z,61.18
2018-08-23T12:28:44.561Z,60.73
2018-08-23T12:31:13.567Z,60.32
2018-08-23T12:33:42.510Z,60.88
2018-08-23T12:36:11.461Z,60.90
2018-08-23T12:38:45.515Z,61.07
2018-08-23T12:41:19.760Z,60.42
2018-08-23T12:43:50.035Z,59.87
2018-08-23T12:46:19.037Z,60.66
2018-08-23T12:48:48.073Z,60.49
2018-08-23T12:51:17.027Z,61.12
2018-08-23T12:53:45.903Z,60.42
2018-08-23T12:56:14.859Z,60.54
2018-08-23T12:58:43.752Z,60.36
2018-08-23T13:01:13.750Z,60.04
2018-08-23T13:03:42.699Z,59.11
2018-08-23T13:06:11.653Z,58.40
2018-08-23T13:08:40.523Z,58.86
2018-08-23T13:11:09.579Z,60.67
2018-08-23T13:13:38.442Z,60.46
2018-08-23T13:16:07.357Z,59.96
2018-08-23T13:18:36.279Z,59.98
2018-08-23T13:21:05.430Z,59.64
2018-08-23T13:23:34.330Z,59.77
2018-08-23T13:26:03.224Z,59.57
2018-08-23T13:28:32.145Z,59.34
2018-08-23T13:31:01.037Z,59.40
2018-08-23T13:33:30.027Z,59.65
2018-08-23T13:35:58.925Z,59.64
2018-08-23T13:38:27.818Z,59.37
2018-08-23T13:40:56.715Z,59.83
2018-08-23T13:43:25.649Z,59.55
2018-08-23T13:45:54.534Z,59.45
2018-08-23T13:48:23.477Z,59.20
2018-08-23T13:50:52.321Z,58.87
2018-08-23T13:53:21.219Z,59.11
2018-08-23T13:55:50.160Z,58.20
2018-08-23T13:58:19.103Z,58.14
2018-08-23T14:00:48.209Z,58.58
2018-08-23T14:03:17.165Z,58.61
2018-08-23T14:05:46.097Z,58.13
2018-08-23T14:08:15.053Z,58.12
2018-08-23T14:10:43.942Z,58.42
2018-08-23T14:13:12.936Z,58.27
2018-08-23T14:15:47.041Z,58.20
2018-08-23T14:18:15.977Z,58.73
2018-08-23T14:20:44.882Z,57.73
2018-08-23T14:23:14.836Z,58.17
2018-08-23T14:25:43.771Z,58.22
2018-08-23T14:28:12.671Z,57.18
2018-08-23T14:30:41.615Z,56.96
2018-08-23T14:33:10.663Z,56.82
2018-08-23T14:35:39.477Z,57.48
2018-08-23T14:38:08.374Z,57.71
2018-08-23T14:40:37.312Z,58.27
2018-08-23T14:43:06.245Z,58.59
2018-08-23T14:45:35.180Z,58.93
2018-08-23T14:48:09.426Z,58.68
2018-08-23T14:50:38.352Z,58.90
2018-08-23T14:53:07.440Z,58.74
2018-08-23T14:55:41.733Z,58.45
2018-08-23T14:58:11.300Z,58.84
2018-08-23T15:00:40.186Z,58.42
2018-08-23T15:03:09.161Z,58.06
2018-08-23T15:05:38.136Z,58.25
2018-08-23T15:08:07.047Z,58.75
2018-08-23T15:10:35.996Z,58.13
2018-08-23T15:13:04.917Z,57.66
2018-08-23T15:15:39.115Z,58.15
2018-08-23T15:18:08.007Z,57.71
2018-08-23T15:20:37.023Z,57.38
2018-08-23T15:23:06.297Z,57.96
2018-08-23T15:25:36.260Z,58.31
2018-08-23T15:28:05.600Z,58.86
2018-08-23T15:30:34.522Z,58.92
2018-08-23T15:33:03.470Z,58.93
2018-08-23T15:35:32.383Z,59.22
2018-08-23T15:38:01.383Z,58.84
2018-08-23T15:40:30.270Z,58.58
2018-08-23T15:42:59.188Z,58.80
2018-08-23T15:45:28.100Z,58.80
2018-08-23T15:47:57.065Z,58.58
2018-08-23T15:50:26.412Z,58.68
2018-08-23T15:52:55.962Z,59.19
2018-08-23T15:55:25.310Z,59.90
2018-08-23T15:57:54.321Z,59.43
2018-08-23T16:00:23.492Z,59.71
2018-08-23T16:02:52.354Z,60.23
2018-08-23T16:05:21.330Z,60.65
2018-08-23T16:07:50.251Z,61.12
2018-08-23T16:10:19.265Z,60.89
2018-08-23T16:12:48.100Z,60.38
2018-08-23T16:15:21.632Z,60.90
2018-08-23T16:17:55.834Z,60.82
2018-08-23T16:20:30.050Z,61.75
2018-08-23T16:22:59.077Z,60.96
2018-08-23T16:25:27.928Z,60.72
2018-08-23T16:27:56.848Z,60.99
2018-08-23T16:30:25.764Z,61.85
2018-08-23T16:32:54.642Z,62.06
2018-08-23T16:35:23.581Z,62.80
2018-08-23T16:37:52.473Z,62.50
2018-08-23T16:40:26.605Z,62.12
2018-08-23T16:42:55.493Z,62.11
2018-08-23T16:45:24.370Z,61.53
2018-08-23T16:47:53.264Z,60.78
2018-08-23T16:50:22.262Z,60.45
2018-08-23T16:52:51.304Z,61.00
2018-08-23T16:55:20.248Z,61.16
2018-08-23T16:57:49.157Z,61.86
2018-08-23T17:00:18.059Z,61.59
2018-08-23T17:02:47.130Z,61.10
2018-08-23T17:05:16.005Z,61.47
2018-08-23T17:07:44.963Z,61.25
2018-08-23T17:10:14.047Z,61.99
2018-08-23T17:12:43.894Z,62.27
2018-08-23T17:15:14.695Z,62.71
2018-08-23T17:17:52.879Z,62.23
2018-08-23T17:20:21.778Z,62.78
2018-08-23T17:22:50.755Z,63.15
2018-08-23T17:25:19.775Z,62.15
2018-08-23T17:27:48.567Z,63.23
2018-08-23T17:30:17.490Z,63.18
2018-08-23T17:32:46.385Z,63.07
2018-08-23T17:35:15.301Z,62.70
2018-08-23T17:37:44.379Z,63.13
2018-08-23T17:40:13.274Z,63.35
2018-08-23T17:42:44.214Z,63.26
2018-08-23T17:45:14.443Z,63.11
2018-08-23T17:47:43.303Z,63.46
2018-08-23T17:50:12.197Z,63.67
2018-08-23T17:52:41.079Z,63.65
2018-08-23T17:55:09.983Z,63.87
2018-08-23T17:57:38.900Z,63.93
2018-08-23T18:00:07.918Z,64.44
2018-08-23T18:02:36.855Z,64.25
2018-08-23T18:05:05.806Z,64.52
2018-08-23T18:07:35.522Z,63.89
2018-08-23T18:10:04.498Z,63.66
2018-08-23T18:12:34.454Z,63.90
2018-08-23T18:15:03.486Z,63.81
2018-08-23T18:17:32.406Z,64.52
2018-08-23T18:20:01.391Z,64.62
2018-08-23T18:22:30.503Z,64.64
2018-08-23T18:24:59.466Z,64.64
2018-08-23T18:27:28.375Z,64.59
2018-08-23T18:29:57.443Z,64.75
2018-08-23T18:32:26.588Z,64.58
2018-08-23T18:34:55.712Z,64.78
2018-08-23T18:37:25.603Z,64.85
2018-08-23T18:39:54.567Z,65.36
2018-08-23T18:42:23.537Z,65.59
2018-08-23T18:44:52.473Z,65.34
2018-08-23T18:47:21.397Z,65.20
2018-08-23T18:49:51.616Z,65.49
2018-08-23T18:52:21.658Z,65.40
2018-08-23T18:54:51.619Z,65.48
2018-08-23T18:57:20.599Z,65.58
2018-08-23T18:59:50.628Z,65.50
2018-08-23T19:02:19.595Z,65.22
2018-08-23T19:04:48.629Z,65.50
2018-08-23T19:07:22.881Z,65.92
2018-08-23T19:09:56.026Z,65.80
2018-08-23T19:12:24.897Z,65.91
2018-08-23T19:14:53.819Z,65.74
2018-08-23T19:17:27.949Z,65.94
2018-08-23T19:19:57.201Z,66.67
2018-08-23T19:22:27.087Z,66.89
2018-08-23T19:24:56.050Z,66.55
2018-08-23T19:27:24.991Z,66.75
2018-08-23T19:29:53.899Z,67.27
2018-08-23T19:32:22.806Z,66.75
2018-08-23T19:34:51.779Z,66.74
2018-08-23T19:37:20.733Z,67.31
2018-08-23T19:39:49.630Z,67.31
2018-08-23T19:44:52.582Z,67.49
2018-08-23T19:47:26.808Z,66.81
2018-08-23T19:49:57.866Z,67.51
2018-08-23T19:52:27.911Z,67.18
2018-08-23T19:54:56.874Z,67.75
2018-08-23T19:57:25.871Z,68.53
2018-08-23T19:59:54.755Z,67.75
2018-08-23T20:02:23.711Z,67.96
2018-08-23T20:04:52.597Z,68.21
2018-08-23T20:07:21.491Z,68.26
2018-08-23T20:09:50.359Z,68.09
2018-08-23T20:12:20.675Z,68.55
2018-08-23T20:14:49.681Z,68.20
2018-08-23T20:17:18.923Z,69.37
2018-08-23T20:19:48.228Z,68.47
2018-08-23T20:22:17.147Z,67.65
2018-08-23T20:24:46.061Z,67.92
2018-08-23T20:27:14.940Z,67.37
2018-08-23T20:29:43.817Z,67.82
2018-08-23T20:32:12.965Z,67.84
2018-08-23T20:34:41.809Z,67.52
2018-08-23T20:37:10.707Z,67.88
2018-08-23T20:42:07.420Z,67.84
2018-08-23T20:44:36.306Z,67.85
2018-08-23T20:47:05.289Z,67.92
2018-08-23T20:49:34.138Z,67.96
2018-08-23T20:52:04.172Z,67.94
2018-08-23T20:54:33.066Z,67.73
2018-08-23T20:57:01.915Z,68.14
2018-08-23T20:59:30.815Z,67.94
2018-08-23T21:01:59.740Z,68.00
2018-08-23T21:04:28.737Z,68.50
2018-08-23T21:06:57.587Z,69.08
2018-08-23T21:09:26.535Z,68.50
2018-08-23T21:11:55.509Z,69.12
2018-08-23T21:14:24.416Z,68.79
2018-08-23T21:16:53.279Z,69.06
2018-08-23T21:19:22.193Z,68.47
2018-08-23T21:21:51.124Z,69.04
2018-08-23T21:24:20.009Z,68.52
2018-08-23T21:26:48.901Z,68.99
2018-08-23T21:29:18.286Z,69.22
2018-08-23T21:31:47.277Z,69.50
2018-08-23T21:34:16.189Z,69.63
2018-08-23T21:36:45.031Z,69.95
2018-08-23T21:39:13.933Z,69.87
2018-08-23T21:41:42.895Z,69.59
2018-08-23T21:44:11.812Z,69.63
2018-08-23T21:46:40.761Z,69.88
2018-08-23T21:49:09.691Z,70.25
2018-08-23T21:51:38.573Z,70.29
2018-08-23T21:54:07.516Z,69.86
2018-08-23T21:56:36.383Z,70.21
2018-08-23T21:59:05.292Z,69.79
2018-08-23T22:01:34.176Z,70.04
2018-08-23T22:04:03.307Z,69.96
2018-08-23T22:06:32.191Z,70.01
2018-08-23T22:09:01.100Z,69.93
2018-08-23T22:11:30.013Z,70.10
2018-08-23T22:13:58.877Z,70.72
2018-08-23T22:16:27.761Z,70.56
2018-08-23T22:18:56.658Z,70.09
2018-08-23T22:21:25.526Z,70.59
2018-08-23T22:23:54.465Z,70.02
2018-08-23T22:26:23.417Z,70.32
2018-08-23T22:28:52.284Z,70.41
2018-08-23T22:31:21.165Z,70.35
2018-08-23T22:33:50.302Z,71.01
2018-08-23T22:36:19.502Z,70.53
2018-08-23T22:38:48.731Z,70.92
2018-08-23T22:41:17.833Z,71.09
2018-08-23T22:43:47.727Z,71.17
2018-08-23T22:46:16.631Z,71.52
2018-08-23T22:48:45.516Z,71.36
2018-08-23T22:51:14.461Z,71.50
2018-08-23T22:53:43.451Z,71.35
2018-08-23T22:56:12.304Z,72.01
2018-08-23T22:58:41.197Z,72.01
2018-08-23T23:01:10.098Z,72.15
2018-08-23T23:03:44.215Z,72.84
2018-08-23T23:06:13.085Z,74.05
2018-08-23T23:08:41.927Z,74.04
2018-08-23T23:11:10.838Z,74.55
2018-08-23T23:13:39.711Z,74.24
2018-08-23T23:16:08.633Z,74.40
2018-08-23T23:18:37.465Z,74.40
2018-08-23T23:21:06.339Z,75.36
2018-08-23T23:23:35.251Z,74.73
2018-08-23T23:26:04.159Z,75.37
2018-08-23T23:28:33.082Z,75.43
2018-08-23T23:31:01.986Z,76.22
2018-08-23T23:33:30.949Z,77.75
2018-08-23T23:35:59.878Z,78.82
2018-08-23T23:38:28.819Z,79.38
2018-08-23T23:40:57.748Z,80.07
2018-08-23T23:54:52.938Z,85.99
2018-08-23T23:57:21.869Z,90.31
2018-08-23T23:59:50.760Z,91.82
